sensor_id;sensor_type;location;lat;lon;timestamp;temperature;humidity
54082;DHT22;39986;50.770;0.266;2023-07-08T00:01:23;21.00;99.90
54082;DHT22;39986;50.770;0.266;2023-07-08T00:03:49;21.10;99.90
54082;DHT22;39986;50.770;0.266;2023-07-08T00:06:21;21.00;99.90
54082;DHT22;39986;50.770;0.266;2023-07-08T00:08:47;21.00;99.90
54082;DHT22;39986;50.770;0.266;2023-07-08T00:11:13;21.00;99.90
54082;DHT22;39986;50.770;0.266;2023-07-08T00:13:39;21.00;99.90
54082;DHT22;39986;50.770;0.266;2023-07-08T00:16:07;21.00;99.90
54082;DHT22;39986;50.770;0.266;2023-07-08T00:18:33;20.90;99.90
54082;DHT22;39986;50.770;0.266;2023-07-08T00:20:59;20.90;99.90
54082;DHT22;39986;50.770;0.266;2023-07-08T00:23:25;21.00;99.90
54082;DHT22;39986;50.770;0.266;2023-07-08T00:25:50;20.90;99.90
54082;DHT22;39986;50.770;0.266;2023-07-08T00:28:20;21.00;99.90
54082;DHT22;39986;50.770;0.266;2023-07-08T00:30:46;21.00;99.90
54082;DHT22;39986;50.770;0.266;2023-07-08T00:33:18;21.10;99.90
54082;DHT22;39986;50.770;0.266;2023-07-08T00:35:44;21.00;99.90
54082;DHT22;39986;50.770;0.266;2023-07-08T00:38:17;21.00;99.90
54082;DHT22;39986;50.770;0.266;2023-07-08T00:40:51;21.00;99.90
54082;DHT22;39986;50.770;0.266;2023-07-08T00:43:17;21.00;99.90
54082;DHT22;39986;50.770;0.266;2023-07-08T00:45:48;21.00;99.90
54082;DHT22;39986;50.770;0.266;2023-07-08T00:50:47;21.00;99.90
54082;DHT22;39986;50.770;0.266;2023-07-08T00:53:30;21.00;99.90
54082;DHT22;39986;50.770;0.266;2023-07-08T00:56:19;21.00;99.90
54082;DHT22;39986;50.770;0.266;2023-07-08T00:58:43;20.90;99.90
54082;DHT22;39986;50.770;0.266;2023-07-08T01:01:09;21.00;99.90
54082;DHT22;39986;50.770;0.266;2023-07-08T01:03:36;21.00;99.90
54082;DHT22;39986;50.770;0.266;2023-07-08T01:06:05;21.00;99.90
54082;DHT22;39986;50.770;0.266;2023-07-08T01:08:31;21.00;99.90
54082;DHT22;39986;50.770;0.266;2023-07-08T01:10:59;20.90;99.90
54082;DHT22;39986;50.770;0.266;2023-07-08T01:13:27;20.90;99.90
54082;DHT22;39986;50.770;0.266;2023-07-08T01:15:53;20.80;99.90
54082;DHT22;39986;50.770;0.266;2023-07-08T01:18:19;20.70;99.90
54082;DHT22;39986;50.770;0.266;2023-07-08T01:20:50;20.70;99.90
54082;DHT22;39986;50.770;0.266;2023-07-08T01:23:16;20.60;99.90
54082;DHT22;39986;50.770;0.266;2023-07-08T01:25:42;20.60;99.90
54082;DHT22;39986;50.770;0.266;2023-07-08T01:28:08;20.60;99.90
54082;DHT22;39986;50.770;0.266;2023-07-08T01:30:34;20.60;99.90
54082;DHT22;39986;50.770;0.266;2023-07-08T01:33:02;20.60;99.90
54082;DHT22;39986;50.770;0.266;2023-07-08T01:35:29;20.70;99.90
54082;DHT22;39986;50.770;0.266;2023-07-08T01:37:59;20.60;99.90
54082;DHT22;39986;50.770;0.266;2023-07-08T01:40:27;20.60;99.90
54082;DHT22;39986;50.770;0.266;2023-07-08T01:42:53;20.60;99.90
54082;DHT22;39986;50.770;0.266;2023-07-08T01:45:19;20.60;99.90
54082;DHT22;39986;50.770;0.266;2023-07-08T01:47:55;20.60;99.90
54082;DHT22;39986;50.770;0.266;2023-07-08T01:50:21;20.70;99.90
54082;DHT22;39986;50.770;0.266;2023-07-08T01:52:48;20.70;99.90
54082;DHT22;39986;50.770;0.266;2023-07-08T01:55:15;20.80;99.90
54082;DHT22;39986;50.770;0.266;2023-07-08T01:57:41;20.70;99.90
54082;DHT22;39986;50.770;0.266;2023-07-08T02:00:07;20.80;99.90
54082;DHT22;39986;50.770;0.266;2023-07-08T02:02:33;20.80;99.90
54082;DHT22;39986;50.770;0.266;2023-07-08T02:04:59;20.80;99.90
54082;DHT22;39986;50.770;0.266;2023-07-08T02:07:24;20.80;99.90
54082;DHT22;39986;50.770;0.266;2023-07-08T02:09:50;20.80;99.90
54082;DHT22;39986;50.770;0.266;2023-07-08T02:12:15;20.80;99.90
54082;DHT22;39986;50.770;0.266;2023-07-08T02:14:41;20.70;99.90
54082;DHT22;39986;50.770;0.266;2023-07-08T02:17:06;20.70;99.90
54082;DHT22;39986;50.770;0.266;2023-07-08T02:19:32;20.60;99.90
54082;DHT22;39986;50.770;0.266;2023-07-08T02:21:57;20.70;99.90
54082;DHT22;39986;50.770;0.266;2023-07-08T02:24:23;20.70;99.90
54082;DHT22;39986;50.770;0.266;2023-07-08T02:26:48;20.70;99.90
54082;DHT22;39986;50.770;0.266;2023-07-08T02:29:14;20.70;99.90
54082;DHT22;39986;50.770;0.266;2023-07-08T02:31:40;20.70;99.90
54082;DHT22;39986;50.770;0.266;2023-07-08T02:34:05;20.80;99.90
54082;DHT22;39986;50.770;0.266;2023-07-08T02:36:32;20.80;99.90
54082;DHT22;39986;50.770;0.266;2023-07-08T02:38:59;20.90;99.90
54082;DHT22;39986;50.770;0.266;2023-07-08T02:41:24;20.80;99.90
54082;DHT22;39986;50.770;0.266;2023-07-08T02:43:50;20.80;99.90
54082;DHT22;39986;50.770;0.266;2023-07-08T02:46:15;20.80;99.90
54082;DHT22;39986;50.770;0.266;2023-07-08T02:48:41;20.70;99.90
54082;DHT22;39986;50.770;0.266;2023-07-08T02:51:06;20.70;99.90
54082;DHT22;39986;50.770;0.266;2023-07-08T02:53:34;20.60;99.90
54082;DHT22;39986;50.770;0.266;2023-07-08T02:55:59;20.60;99.90
54082;DHT22;39986;50.770;0.266;2023-07-08T02:58:25;20.60;99.90
54082;DHT22;39986;50.770;0.266;2023-07-08T03:00:53;20.60;99.90
54082;DHT22;39986;50.770;0.266;2023-07-08T03:03:19;20.60;99.90
54082;DHT22;39986;50.770;0.266;2023-07-08T03:05:44;20.60;99.90
54082;DHT22;39986;50.770;0.266;2023-07-08T03:08:18;20.70;99.90
54082;DHT22;39986;50.770;0.266;2023-07-08T03:10:47;20.70;99.90
54082;DHT22;39986;50.770;0.266;2023-07-08T03:13:12;20.70;99.90
54082;DHT22;39986;50.770;0.266;2023-07-08T03:15:38;20.70;99.90
54082;DHT22;39986;50.770;0.266;2023-07-08T03:18:03;20.70;99.90
54082;DHT22;39986;50.770;0.266;2023-07-08T03:20:29;20.70;99.90
54082;DHT22;39986;50.770;0.266;2023-07-08T03:22:57;20.70;99.90
54082;DHT22;39986;50.770;0.266;2023-07-08T03:25:23;20.70;99.90
54082;DHT22;39986;50.770;0.266;2023-07-08T03:27:50;20.70;99.90
54082;DHT22;39986;50.770;0.266;2023-07-08T03:30:15;20.60;99.90
54082;DHT22;39986;50.770;0.266;2023-07-08T03:32:41;20.50;99.90
54082;DHT22;39986;50.770;0.266;2023-07-08T03:35:07;20.50;99.90
54082;DHT22;39986;50.770;0.266;2023-07-08T03:37:33;20.40;99.90
54082;DHT22;39986;50.770;0.266;2023-07-08T03:39:58;20.40;99.90
54082;DHT22;39986;50.770;0.266;2023-07-08T03:42:24;20.30;99.90
54082;DHT22;39986;50.770;0.266;2023-07-08T03:44:49;20.30;99.90
54082;DHT22;39986;50.770;0.266;2023-07-08T03:47:15;20.20;99.90
54082;DHT22;39986;50.770;0.266;2023-07-08T03:49:40;20.20;99.90
54082;DHT22;39986;50.770;0.266;2023-07-08T03:52:07;20.10;99.90
54082;DHT22;39986;50.770;0.266;2023-07-08T03:54:34;20.10;99.90
54082;DHT22;39986;50.770;0.266;2023-07-08T03:57:00;20.10;99.90
54082;DHT22;39986;50.770;0.266;2023-07-08T03:59:25;20.10;99.90
54082;DHT22;39986;50.770;0.266;2023-07-08T04:01:51;20.10;99.90
54082;DHT22;39986;50.770;0.266;2023-07-08T04:04:16;20.10;99.90
54082;DHT22;39986;50.770;0.266;2023-07-08T04:06:42;20.10;99.90
54082;DHT22;39986;50.770;0.266;2023-07-08T04:09:08;20.20;99.90
54082;DHT22;39986;50.770;0.266;2023-07-08T04:11:34;20.20;99.90
54082;DHT22;39986;50.770;0.266;2023-07-08T04:14:00;20.20;99.90
54082;DHT22;39986;50.770;0.266;2023-07-08T04:16:26;20.20;99.90
54082;DHT22;39986;50.770;0.266;2023-07-08T04:18:53;20.30;99.90
54082;DHT22;39986;50.770;0.266;2023-07-08T04:21:19;20.30;99.90
54082;DHT22;39986;50.770;0.266;2023-07-08T04:23:45;20.30;99.90
54082;DHT22;39986;50.770;0.266;2023-07-08T04:26:10;20.30;99.90
54082;DHT22;39986;50.770;0.266;2023-07-08T04:28:36;20.30;99.90
54082;DHT22;39986;50.770;0.266;2023-07-08T04:31:02;20.30;99.90
54082;DHT22;39986;50.770;0.266;2023-07-08T04:33:29;20.20;99.90
54082;DHT22;39986;50.770;0.266;2023-07-08T04:35:54;20.20;99.90
54082;DHT22;39986;50.770;0.266;2023-07-08T04:38:22;20.20;99.90
54082;DHT22;39986;50.770;0.266;2023-07-08T04:40:48;20.30;99.90
54082;DHT22;39986;50.770;0.266;2023-07-08T04:43:14;20.20;99.90
54082;DHT22;39986;50.770;0.266;2023-07-08T04:45:40;20.20;99.90
54082;DHT22;39986;50.770;0.266;2023-07-08T04:48:07;20.20;99.90
54082;DHT22;39986;50.770;0.266;2023-07-08T04:50:34;20.20;99.90
54082;DHT22;39986;50.770;0.266;2023-07-08T04:52:59;20.30;99.90
54082;DHT22;39986;50.770;0.266;2023-07-08T04:55:25;20.40;99.90
54082;DHT22;39986;50.770;0.266;2023-07-08T04:57:51;20.40;99.90
54082;DHT22;39986;50.770;0.266;2023-07-08T05:00:17;20.40;99.90
54082;DHT22;39986;50.770;0.266;2023-07-08T05:02:42;20.60;99.90
54082;DHT22;39986;50.770;0.266;2023-07-08T05:05:08;20.60;99.90
54082;DHT22;39986;50.770;0.266;2023-07-08T05:07:34;20.70;99.90
54082;DHT22;39986;50.770;0.266;2023-07-08T05:09:59;20.80;99.90
54082;DHT22;39986;50.770;0.266;2023-07-08T05:12:25;20.90;99.90
54082;DHT22;39986;50.770;0.266;2023-07-08T05:14:51;21.10;99.90
54082;DHT22;39986;50.770;0.266;2023-07-08T05:17:16;21.20;99.90
54082;DHT22;39986;50.770;0.266;2023-07-08T05:19:42;21.30;99.90
54082;DHT22;39986;50.770;0.266;2023-07-08T05:22:09;21.60;99.90
54082;DHT22;39986;50.770;0.266;2023-07-08T05:24:35;21.90;99.90
54082;DHT22;39986;50.770;0.266;2023-07-08T05:27:02;22.40;99.90
54082;DHT22;39986;50.770;0.266;2023-07-08T05:29:28;22.70;99.90
54082;DHT22;39986;50.770;0.266;2023-07-08T05:31:53;22.70;99.90
54082;DHT22;39986;50.770;0.266;2023-07-08T05:34:19;22.50;99.90
54082;DHT22;39986;50.770;0.266;2023-07-08T05:36:45;22.40;99.90
54082;DHT22;39986;50.770;0.266;2023-07-08T05:39:10;22.20;99.90
54082;DHT22;39986;50.770;0.266;2023-07-08T05:41:36;22.20;99.90
54082;DHT22;39986;50.770;0.266;2023-07-08T05:44:01;22.10;99.90
54082;DHT22;39986;50.770;0.266;2023-07-08T05:46:27;22.00;99.90
54082;DHT22;39986;50.770;0.266;2023-07-08T05:48:52;22.00;99.90
54082;DHT22;39986;50.770;0.266;2023-07-08T05:51:20;22.10;99.90
54082;DHT22;39986;50.770;0.266;2023-07-08T05:53:46;22.20;99.90
54082;DHT22;39986;50.770;0.266;2023-07-08T05:56:11;22.20;99.90
54082;DHT22;39986;50.770;0.266;2023-07-08T05:58:37;22.20;99.90
54082;DHT22;39986;50.770;0.266;2023-07-08T06:01:03;22.30;99.90
54082;DHT22;39986;50.770;0.266;2023-07-08T06:03:28;22.40;99.90
54082;DHT22;39986;50.770;0.266;2023-07-08T06:05:54;22.40;99.90
54082;DHT22;39986;50.770;0.266;2023-07-08T06:08:19;22.40;99.90
54082;DHT22;39986;50.770;0.266;2023-07-08T06:10:45;22.30;99.90
54082;DHT22;39986;50.770;0.266;2023-07-08T06:13:11;22.30;99.90
54082;DHT22;39986;50.770;0.266;2023-07-08T06:15:37;22.30;99.90
54082;DHT22;39986;50.770;0.266;2023-07-08T06:18:03;22.30;99.90
54082;DHT22;39986;50.770;0.266;2023-07-08T06:20:28;22.30;99.90
54082;DHT22;39986;50.770;0.266;2023-07-08T06:22:54;22.30;99.90
54082;DHT22;39986;50.770;0.266;2023-07-08T06:25:20;22.40;99.90
54082;DHT22;39986;50.770;0.266;2023-07-08T06:27:45;22.50;99.90
54082;DHT22;39986;50.770;0.266;2023-07-08T06:30:11;22.60;99.90
54082;DHT22;39986;50.770;0.266;2023-07-08T06:32:36;22.70;99.90
54082;DHT22;39986;50.770;0.266;2023-07-08T06:35:02;22.80;99.90
54082;DHT22;39986;50.770;0.266;2023-07-08T06:37:28;23.00;99.90
54082;DHT22;39986;50.770;0.266;2023-07-08T06:39:54;23.20;99.90
54082;DHT22;39986;50.770;0.266;2023-07-08T06:42:19;23.40;99.90
54082;DHT22;39986;50.770;0.266;2023-07-08T06:44:45;23.50;99.90
54082;DHT22;39986;50.770;0.266;2023-07-08T06:47:16;23.60;99.90
54082;DHT22;39986;50.770;0.266;2023-07-08T06:49:42;23.80;99.90
54082;DHT22;39986;50.770;0.266;2023-07-08T06:52:07;24.00;99.90
54082;DHT22;39986;50.770;0.266;2023-07-08T06:54:33;24.20;99.90
54082;DHT22;39986;50.770;0.266;2023-07-08T06:56:58;24.40;99.90
54082;DHT22;39986;50.770;0.266;2023-07-08T06:59:24;24.70;99.90
54082;DHT22;39986;50.770;0.266;2023-07-08T07:01:49;24.90;99.90
54082;DHT22;39986;50.770;0.266;2023-07-08T07:04:15;25.00;99.90
54082;DHT22;39986;50.770;0.266;2023-07-08T07:06:41;25.20;99.90
54082;DHT22;39986;50.770;0.266;2023-07-08T07:09:06;25.30;99.90
54082;DHT22;39986;50.770;0.266;2023-07-08T07:11:31;25.40;99.90
54082;DHT22;39986;50.770;0.266;2023-07-08T07:13:57;25.40;99.90
54082;DHT22;39986;50.770;0.266;2023-07-08T07:16:23;25.50;99.90
54082;DHT22;39986;50.770;0.266;2023-07-08T07:18:48;25.60;99.90
54082;DHT22;39986;50.770;0.266;2023-07-08T07:21:15;25.80;99.90
54082;DHT22;39986;50.770;0.266;2023-07-08T07:23:40;26.00;99.90
54082;DHT22;39986;50.770;0.266;2023-07-08T07:26:06;26.10;99.90
54082;DHT22;39986;50.770;0.266;2023-07-08T07:28:32;26.10;99.90
54082;DHT22;39986;50.770;0.266;2023-07-08T07:30:58;26.20;99.90
54082;DHT22;39986;50.770;0.266;2023-07-08T07:33:24;26.30;99.90
54082;DHT22;39986;50.770;0.266;2023-07-08T07:35:49;26.30;99.90
54082;DHT22;39986;50.770;0.266;2023-07-08T07:38:15;26.30;99.90
54082;DHT22;39986;50.770;0.266;2023-07-08T07:40:43;26.50;99.90
54082;DHT22;39986;50.770;0.266;2023-07-08T07:43:09;26.50;99.90
54082;DHT22;39986;50.770;0.266;2023-07-08T07:45:35;26.50;99.90
54082;DHT22;39986;50.770;0.266;2023-07-08T07:48:00;26.50;99.90
54082;DHT22;39986;50.770;0.266;2023-07-08T07:50:26;26.40;99.90
54082;DHT22;39986;50.770;0.266;2023-07-08T07:52:51;26.20;99.90
54082;DHT22;39986;50.770;0.266;2023-07-08T07:55:17;26.10;99.90
54082;DHT22;39986;50.770;0.266;2023-07-08T07:57:43;25.90;99.90
54082;DHT22;39986;50.770;0.266;2023-07-08T08:00:11;25.80;99.90
54082;DHT22;39986;50.770;0.266;2023-07-08T08:02:37;25.70;99.90
54082;DHT22;39986;50.770;0.266;2023-07-08T08:05:02;25.60;99.90
54082;DHT22;39986;50.770;0.266;2023-07-08T08:07:28;25.60;99.90
54082;DHT22;39986;50.770;0.266;2023-07-08T08:09:54;25.50;99.90
54082;DHT22;39986;50.770;0.266;2023-07-08T08:12:20;25.40;99.90
54082;DHT22;39986;50.770;0.266;2023-07-08T08:14:47;25.30;99.90
54082;DHT22;39986;50.770;0.266;2023-07-08T08:17:13;25.20;99.90
54082;DHT22;39986;50.770;0.266;2023-07-08T08:19:38;25.10;99.90
54082;DHT22;39986;50.770;0.266;2023-07-08T08:22:04;25.10;99.90
54082;DHT22;39986;50.770;0.266;2023-07-08T08:24:29;25.10;99.90
54082;DHT22;39986;50.770;0.266;2023-07-08T08:26:55;25.20;99.90
54082;DHT22;39986;50.770;0.266;2023-07-08T08:29:21;25.40;99.90
54082;DHT22;39986;50.770;0.266;2023-07-08T08:31:46;25.60;99.90
54082;DHT22;39986;50.770;0.266;2023-07-08T08:34:12;25.70;99.90
54082;DHT22;39986;50.770;0.266;2023-07-08T08:36:37;25.80;99.90
54082;DHT22;39986;50.770;0.266;2023-07-08T08:39:03;26.00;99.90
54082;DHT22;39986;50.770;0.266;2023-07-08T08:41:29;26.20;99.90
54082;DHT22;39986;50.770;0.266;2023-07-08T08:43:55;26.60;99.90
54082;DHT22;39986;50.770;0.266;2023-07-08T08:46:29;26.80;99.90
54082;DHT22;39986;50.770;0.266;2023-07-08T08:51:42;27.10;99.90
54082;DHT22;39986;50.770;0.266;2023-07-08T08:54:08;27.30;99.90
54082;DHT22;39986;50.770;0.266;2023-07-08T09:04:48;26.90;99.90
54082;DHT22;39986;50.770;0.266;2023-07-08T09:07:14;26.90;99.90
54082;DHT22;39986;50.770;0.266;2023-07-08T09:09:45;27.10;99.90
54082;DHT22;39986;50.770;0.266;2023-07-08T09:12:14;27.00;99.90
54082;DHT22;39986;50.770;0.266;2023-07-08T09:14:42;27.20;99.90
54082;DHT22;39986;50.770;0.266;2023-07-08T09:19:40;27.30;99.90
54082;DHT22;39986;50.770;0.266;2023-07-08T09:22:11;27.30;99.90
54082;DHT22;39986;50.770;0.266;2023-07-08T09:24:45;27.20;99.90
54082;DHT22;39986;50.770;0.266;2023-07-08T09:27:13;27.40;99.90
54082;DHT22;39986;50.770;0.266;2023-07-08T09:29:38;27.50;99.90
54082;DHT22;39986;50.770;0.266;2023-07-08T09:32:14;27.50;99.90
54082;DHT22;39986;50.770;0.266;2023-07-08T09:34:42;27.50;99.90
54082;DHT22;39986;50.770;0.266;2023-07-08T09:40:22;27.30;99.90
54082;DHT22;39986;50.770;0.266;2023-07-08T09:42:49;27.30;99.90
54082;DHT22;39986;50.770;0.266;2023-07-08T09:45:18;27.30;99.90
54082;DHT22;39986;50.770;0.266;2023-07-08T09:47:45;27.40;99.90
54082;DHT22;39986;50.770;0.266;2023-07-08T09:50:25;27.50;99.90
54082;DHT22;39986;50.770;0.266;2023-07-08T09:52:52;27.60;99.90
54082;DHT22;39986;50.770;0.266;2023-07-08T09:55:19;27.80;99.90
54082;DHT22;39986;50.770;0.266;2023-07-08T09:57:45;27.90;99.90
54082;DHT22;39986;50.770;0.266;2023-07-08T10:00:12;28.10;99.90
54082;DHT22;39986;50.770;0.266;2023-07-08T10:02:40;28.20;99.90
54082;DHT22;39986;50.770;0.266;2023-07-08T10:07:37;28.60;99.90
54082;DHT22;39986;50.770;0.266;2023-07-08T10:10:04;28.80;99.90
54082;DHT22;39986;50.770;0.266;2023-07-08T10:12:31;29.10;99.90
54082;DHT22;39986;50.770;0.266;2023-07-08T10:15:03;29.40;99.90
54082;DHT22;39986;50.770;0.266;2023-07-08T10:17:31;29.80;99.90
54082;DHT22;39986;50.770;0.266;2023-07-08T10:19:58;30.00;99.90
54082;DHT22;39986;50.770;0.266;2023-07-08T10:30:56;29.10;99.90
54082;DHT22;39986;50.770;0.266;2023-07-08T10:37:11;29.20;99.90
54082;DHT22;39986;50.770;0.266;2023-07-08T10:51:41;31.80;99.90
54082;DHT22;39986;50.770;0.266;2023-07-08T10:54:17;32.50;99.90
54082;DHT22;39986;50.770;0.266;2023-07-08T10:59:22;33.20;99.90
54082;DHT22;39986;50.770;0.266;2023-07-08T11:04:33;32.90;99.90
54082;DHT22;39986;50.770;0.266;2023-07-08T11:07:05;32.70;99.90
54082;DHT22;39986;50.770;0.266;2023-07-08T11:09:39;32.90;99.90
54082;DHT22;39986;50.770;0.266;2023-07-08T11:17:20;33.10;99.90
54082;DHT22;39986;50.770;0.266;2023-07-08T11:19:49;32.90;99.90
54082;DHT22;39986;50.770;0.266;2023-07-08T11:22:17;32.40;99.90
54082;DHT22;39986;50.770;0.266;2023-07-08T11:24:47;31.80;99.90
54082;DHT22;39986;50.770;0.266;2023-07-08T11:27:27;31.30;99.90
54082;DHT22;39986;50.770;0.266;2023-07-08T11:29:59;30.70;99.90
54082;DHT22;39986;50.770;0.266;2023-07-08T11:32:27;30.00;99.90
54082;DHT22;39986;50.770;0.266;2023-07-08T11:34:54;29.40;99.90
54082;DHT22;39986;50.770;0.266;2023-07-08T11:37:20;29.00;99.90
54082;DHT22;39986;50.770;0.266;2023-07-08T11:39:53;28.70;99.90
54082;DHT22;39986;50.770;0.266;2023-07-08T11:42:23;28.30;99.90
54082;DHT22;39986;50.770;0.266;2023-07-08T11:44:58;28.00;99.90
54082;DHT22;39986;50.770;0.266;2023-07-08T11:47:26;27.70;99.90
54082;DHT22;39986;50.770;0.266;2023-07-08T11:49:54;27.40;99.90
54082;DHT22;39986;50.770;0.266;2023-07-08T11:52:21;27.10;99.90
54082;DHT22;39986;50.770;0.266;2023-07-08T11:54:48;26.90;99.90
54082;DHT22;39986;50.770;0.266;2023-07-08T11:57:19;26.60;99.90
54082;DHT22;39986;50.770;0.266;2023-07-08T11:59:56;26.40;99.90
54082;DHT22;39986;50.770;0.266;2023-07-08T12:02:30;26.20;99.90
54082;DHT22;39986;50.770;0.266;2023-07-08T12:05:12;26.00;99.90
54082;DHT22;39986;50.770;0.266;2023-07-08T12:07:44;25.80;99.90
54082;DHT22;39986;50.770;0.266;2023-07-08T12:10:11;25.20;99.90
54082;DHT22;39986;50.770;0.266;2023-07-08T12:12:41;24.40;99.90
54082;DHT22;39986;50.770;0.266;2023-07-08T12:15:20;23.70;99.90
54082;DHT22;39986;50.770;0.266;2023-07-08T12:17:47;23.10;99.90
54082;DHT22;39986;50.770;0.266;2023-07-08T12:20:17;22.60;99.90
54082;DHT22;39986;50.770;0.266;2023-07-08T12:22:43;22.40;99.90
54082;DHT22;39986;50.770;0.266;2023-07-08T12:25:16;22.20;99.90
54082;DHT22;39986;50.770;0.266;2023-07-08T12:27:43;22.30;99.90
54082;DHT22;39986;50.770;0.266;2023-07-08T12:30:09;22.30;99.90
54082;DHT22;39986;50.770;0.266;2023-07-08T12:32:36;22.40;99.90
54082;DHT22;39986;50.770;0.266;2023-07-08T12:35:02;22.50;99.90
54082;DHT22;39986;50.770;0.266;2023-07-08T12:37:29;22.50;99.90
54082;DHT22;39986;50.770;0.266;2023-07-08T12:39:56;22.40;99.90
54082;DHT22;39986;50.770;0.266;2023-07-08T12:42:24;22.30;99.90
54082;DHT22;39986;50.770;0.266;2023-07-08T12:44:50;22.30;99.90
54082;DHT22;39986;50.770;0.266;2023-07-08T12:47:18;22.40;99.90
54082;DHT22;39986;50.770;0.266;2023-07-08T12:49:44;22.70;99.90
54082;DHT22;39986;50.770;0.266;2023-07-08T12:52:22;23.20;99.90
54082;DHT22;39986;50.770;0.266;2023-07-08T12:54:49;25.40;99.90
54082;DHT22;39986;50.770;0.266;2023-07-08T12:57:16;29.20;99.90
54082;DHT22;39986;50.770;0.266;2023-07-08T12:59:41;32.40;99.90
54082;DHT22;39986;50.770;0.266;2023-07-08T13:02:14;35.20;99.90
54082;DHT22;39986;50.770;0.266;2023-07-08T13:04:40;37.00;99.90
54082;DHT22;39986;50.770;0.266;2023-07-08T13:07:08;38.50;99.90
54082;DHT22;39986;50.770;0.266;2023-07-08T13:09:42;40.10;99.90
54082;DHT22;39986;50.770;0.266;2023-07-08T13:12:14;40.20;99.90
54082;DHT22;39986;50.770;0.266;2023-07-08T13:14:40;38.70;99.90
54082;DHT22;39986;50.770;0.266;2023-07-08T13:17:10;36.30;99.90
54082;DHT22;39986;50.770;0.266;2023-07-08T13:19:38;34.10;99.90
54082;DHT22;39986;50.770;0.266;2023-07-08T13:22:03;32.40;99.90
54082;DHT22;39986;50.770;0.266;2023-07-08T13:24:30;30.90;99.90
54082;DHT22;39986;50.770;0.266;2023-07-08T13:26:56;29.90;99.90
54082;DHT22;39986;50.770;0.266;2023-07-08T13:29:22;29.00;99.90
54082;DHT22;39986;50.770;0.266;2023-07-08T13:31:56;28.50;99.90
54082;DHT22;39986;50.770;0.266;2023-07-08T13:34:26;28.00;99.90
54082;DHT22;39986;50.770;0.266;2023-07-08T13:36:52;27.70;99.90
54082;DHT22;39986;50.770;0.266;2023-07-08T13:39:29;27.50;99.90
54082;DHT22;39986;50.770;0.266;2023-07-08T13:41:56;27.30;99.90
54082;DHT22;39986;50.770;0.266;2023-07-08T13:44:22;27.20;99.90
54082;DHT22;39986;50.770;0.266;2023-07-08T13:46:52;27.10;99.90
54082;DHT22;39986;50.770;0.266;2023-07-08T13:49:25;27.00;99.90
54082;DHT22;39986;50.770;0.266;2023-07-08T13:52:04;27.00;99.90
54082;DHT22;39986;50.770;0.266;2023-07-08T13:54:34;27.10;99.90
54082;DHT22;39986;50.770;0.266;2023-07-08T13:57:00;27.30;99.90
54082;DHT22;39986;50.770;0.266;2023-07-08T13:59:26;27.50;99.90
54082;DHT22;39986;50.770;0.266;2023-07-08T14:01:53;27.70;99.90
54082;DHT22;39986;50.770;0.266;2023-07-08T14:04:21;28.10;99.90
54082;DHT22;39986;50.770;0.266;2023-07-08T14:06:47;28.30;99.90
54082;DHT22;39986;50.770;0.266;2023-07-08T14:09:14;28.50;99.90
54082;DHT22;39986;50.770;0.266;2023-07-08T14:11:40;28.50;99.90
54082;DHT22;39986;50.770;0.266;2023-07-08T14:14:07;28.70;99.90
54082;DHT22;39986;50.770;0.266;2023-07-08T14:16:33;29.70;99.90
54082;DHT22;39986;50.770;0.266;2023-07-08T14:19:00;31.80;99.90
54082;DHT22;39986;50.770;0.266;2023-07-08T14:21:29;33.60;99.90
54082;DHT22;39986;50.770;0.266;2023-07-08T14:23:55;34.30;99.90
54082;DHT22;39986;50.770;0.266;2023-07-08T14:26:20;34.10;99.90
54082;DHT22;39986;50.770;0.266;2023-07-08T14:28:46;33.50;99.90
54082;DHT22;39986;50.770;0.266;2023-07-08T14:31:12;32.50;99.90
54082;DHT22;39986;50.770;0.266;2023-07-08T14:33:39;31.40;99.90
54082;DHT22;39986;50.770;0.266;2023-07-08T14:36:11;30.40;99.90
54082;DHT22;39986;50.770;0.266;2023-07-08T14:38:37;29.70;99.90
54082;DHT22;39986;50.770;0.266;2023-07-08T14:41:03;29.40;99.90
54082;DHT22;39986;50.770;0.266;2023-07-08T14:43:29;29.10;99.90
54082;DHT22;39986;50.770;0.266;2023-07-08T14:45:56;28.80;99.90
54082;DHT22;39986;50.770;0.266;2023-07-08T14:48:23;28.40;99.90
54082;DHT22;39986;50.770;0.266;2023-07-08T14:50:48;28.50;99.90
54082;DHT22;39986;50.770;0.266;2023-07-08T14:53:14;29.30;99.90
54082;DHT22;39986;50.770;0.266;2023-07-08T14:55:40;29.80;99.90
54082;DHT22;39986;50.770;0.266;2023-07-08T14:58:06;29.30;99.90
54082;DHT22;39986;50.770;0.266;2023-07-08T15:00:32;29.10;99.90
54082;DHT22;39986;50.770;0.266;2023-07-08T15:02:58;29.00;99.90
54082;DHT22;39986;50.770;0.266;2023-07-08T15:05:24;28.50;99.90
54082;DHT22;39986;50.770;0.266;2023-07-08T15:07:52;28.10;99.90
54082;DHT22;39986;50.770;0.266;2023-07-08T15:10:18;28.00;99.90
54082;DHT22;39986;50.770;0.266;2023-07-08T15:12:45;28.00;99.90
54082;DHT22;39986;50.770;0.266;2023-07-08T15:15:19;27.80;99.90
54082;DHT22;39986;50.770;0.266;2023-07-08T15:17:47;27.90;99.90
54082;DHT22;39986;50.770;0.266;2023-07-08T15:20:13;27.70;99.90
54082;DHT22;39986;50.770;0.266;2023-07-08T15:22:40;27.60;99.90
54082;DHT22;39986;50.770;0.266;2023-07-08T15:25:07;27.60;99.90
54082;DHT22;39986;50.770;0.266;2023-07-08T15:27:33;27.50;99.90
54082;DHT22;39986;50.770;0.266;2023-07-08T15:29:59;27.40;99.90
54082;DHT22;39986;50.770;0.266;2023-07-08T15:32:24;27.10;99.90
54082;DHT22;39986;50.770;0.266;2023-07-08T15:34:50;26.80;99.90
54082;DHT22;39986;50.770;0.266;2023-07-08T15:37:15;27.00;99.90
54082;DHT22;39986;50.770;0.266;2023-07-08T15:39:41;27.20;99.90
54082;DHT22;39986;50.770;0.266;2023-07-08T15:42:13;27.30;99.90
54082;DHT22;39986;50.770;0.266;2023-07-08T15:44:38;27.40;99.90
54082;DHT22;39986;50.770;0.266;2023-07-08T15:47:04;27.80;99.90
54082;DHT22;39986;50.770;0.266;2023-07-08T15:49:32;28.00;99.90
54082;DHT22;39986;50.770;0.266;2023-07-08T15:51:59;27.80;99.90
54082;DHT22;39986;50.770;0.266;2023-07-08T15:54:25;27.40;99.90
54082;DHT22;39986;50.770;0.266;2023-07-08T15:56:51;27.30;99.90
54082;DHT22;39986;50.770;0.266;2023-07-08T15:59:19;27.40;99.90
54082;DHT22;39986;50.770;0.266;2023-07-08T16:01:46;27.40;99.90
54082;DHT22;39986;50.770;0.266;2023-07-08T16:04:18;27.20;99.90
54082;DHT22;39986;50.770;0.266;2023-07-08T16:06:44;27.10;99.90
54082;DHT22;39986;50.770;0.266;2023-07-08T16:09:09;27.00;99.90
54082;DHT22;39986;50.770;0.266;2023-07-08T16:11:35;27.00;99.90
54082;DHT22;39986;50.770;0.266;2023-07-08T16:14:01;26.80;99.90
54082;DHT22;39986;50.770;0.266;2023-07-08T16:16:27;26.50;99.90
54082;DHT22;39986;50.770;0.266;2023-07-08T16:18:53;26.30;99.90
54082;DHT22;39986;50.770;0.266;2023-07-08T16:21:18;26.10;99.90
54082;DHT22;39986;50.770;0.266;2023-07-08T16:23:44;26.10;99.90
54082;DHT22;39986;50.770;0.266;2023-07-08T16:26:10;26.30;99.90